Terminal Aerodrome Forecast
Issued by NWS

Home | Current Version | Previous Version | Text Only | Print | Product List | Glossary On
Versions: 1 2 3 4 5 6 7 8 9 10 11 12 13 14 15 16 17
000
FTUS43 KAPX 281120
TAFMBL
TAF
KMBL 281120Z 2812/2912 09007KT P6SM VCSH SCT015 OVC050
     FM281800 04011G20KT P6SM BKN050
     FM290000 06009KT P6SM SCT060=

USA.gov is the U.S. government's official web portal to all federal, state and local government web resources and services.